createdAt,value
2019-03-09T00:01:24.969Z,12.57
2019-03-09T00:03:50.910Z,13.03
2019-03-09T00:06:17.086Z,13.50
2019-03-09T00:08:43.136Z,13.30
2019-03-09T00:11:09.169Z,13.00
2019-03-09T00:13:35.184Z,12.97
2019-03-09T00:16:01.115Z,13.57
2019-03-09T00:18:27.809Z,13.83
2019-03-09T00:20:53.731Z,13.77
2019-03-09T00:23:38.609Z,14.30
2019-03-09T00:26:09.085Z,14.17
2019-03-09T00:28:42.882Z,13.77
2019-03-09T00:31:13.636Z,14.37
2019-03-09T00:33:39.486Z,13.87
2019-03-09T00:36:05.540Z,13.83
2019-03-09T00:38:31.371Z,14.43
2019-03-09T00:40:57.257Z,13.43
2019-03-09T00:43:23.097Z,14.27
2019-03-09T00:45:49.138Z,15.43
2019-03-09T00:48:15.258Z,18.47
2019-03-09T00:50:41.196Z,14.10
2019-03-09T00:53:09.927Z,17.10
2019-03-09T00:55:36.040Z,13.93
2019-03-09T00:58:02.112Z,14.53
2019-03-09T01:00:28.168Z,14.33
2019-03-09T01:02:54.147Z,13.40
2019-03-09T01:05:20.302Z,14.03
2019-03-09T01:07:46.408Z,13.23
2019-03-09T01:10:14.027Z,13.40
2019-03-09T01:12:40.116Z,14.03
2019-03-09T01:15:07.175Z,14.60
2019-03-09T01:17:33.089Z,14.63
2019-03-09T01:19:59.092Z,15.57
2019-03-09T01:22:25.226Z,15.47
2019-03-09T01:24:51.440Z,14.83
2019-03-09T01:27:17.459Z,15.93
2019-03-09T01:29:43.414Z,15.47
2019-03-09T01:32:09.448Z,15.97
2019-03-09T01:34:35.513Z,15.27
2019-03-09T01:37:01.678Z,14.77
2019-03-09T01:39:27.596Z,15.43
2019-03-09T01:41:53.609Z,16.00
2019-03-09T01:44:19.449Z,16.07
2019-03-09T01:46:45.391Z,15.80
2019-03-09T01:49:11.696Z,15.33
2019-03-09T01:51:37.544Z,15.30
2019-03-09T01:54:07.464Z,15.93
2019-03-09T01:56:33.550Z,16.33
2019-03-09T01:58:59.384Z,16.30
2019-03-09T02:01:25.309Z,14.93
2019-03-09T02:03:51.421Z,16.00
2019-03-09T02:06:17.377Z,15.70
2019-03-09T02:08:43.368Z,16.83
2019-03-09T02:11:09.483Z,16.57
2019-03-09T02:13:35.453Z,15.67
2019-03-09T02:16:01.492Z,16.57
2019-03-09T02:18:27.679Z,15.43
2019-03-09T02:20:53.627Z,15.97
2019-03-09T02:23:19.574Z,16.70
2019-03-09T02:25:45.529Z,16.50
2019-03-09T02:28:11.569Z,16.73
2019-03-09T02:30:37.487Z,16.07
2019-03-09T02:33:03.436Z,16.83
2019-03-09T02:35:29.268Z,16.13
2019-03-09T02:37:57.082Z,16.40
2019-03-09T02:40:24.920Z,16.43
2019-03-09T02:42:50.864Z,16.80
2019-03-09T02:45:19.173Z,17.10
2019-03-09T02:47:45.102Z,15.83
2019-03-09T02:50:13.157Z,16.03
2019-03-09T02:52:39.347Z,17.23
2019-03-09T02:55:07.312Z,15.83
2019-03-09T02:57:33.291Z,15.40
2019-03-09T03:00:00.959Z,16.60
2019-03-09T03:02:34.933Z,15.17
2019-03-09T03:05:00.876Z,15.97
2019-03-09T03:07:26.889Z,16.00
2019-03-09T03:09:52.720Z,16.87
2019-03-09T03:12:18.650Z,16.87
2019-03-09T03:14:44.593Z,17.40
2019-03-09T03:17:10.432Z,16.63
2019-03-09T03:19:36.272Z,17.43
2019-03-09T03:22:02.323Z,16.40
2019-03-09T03:24:28.385Z,15.90
2019-03-09T03:26:54.336Z,16.73
2019-03-09T03:29:20.986Z,16.60
2019-03-09T03:31:46.915Z,16.27
2019-03-09T03:34:12.756Z,17.43
2019-03-09T03:36:38.757Z,17.73
2019-03-09T03:39:05.495Z,17.90
2019-03-09T03:41:31.741Z,17.57
2019-03-09T03:43:57.815Z,17.43
2019-03-09T03:46:23.763Z,17.73
2019-03-09T03:48:49.803Z,16.57
2019-03-09T03:51:15.781Z,16.70
2019-03-09T03:53:42.001Z,16.67
2019-03-09T03:56:08.058Z,16.90
2019-03-09T03:58:34.222Z,16.80
2019-03-09T04:01:00.279Z,15.87
2019-03-09T04:03:26.116Z,17.10
2019-03-09T04:05:52.237Z,17.27
2019-03-09T04:08:18.381Z,17.53
2019-03-09T04:10:44.503Z,18.57
2019-03-09T04:13:10.864Z,19.13
2019-03-09T04:15:36.904Z,19.53
2019-03-09T04:18:02.889Z,18.33
2019-03-09T04:20:28.837Z,18.80
2019-03-09T04:22:54.680Z,18.70
2019-03-09T04:25:20.814Z,17.87
2019-03-09T04:27:46.737Z,20.00
2019-03-09T04:30:12.777Z,20.00
2019-03-09T04:32:38.758Z,19.50
2019-03-09T04:35:05.810Z,18.60
2019-03-09T04:37:31.774Z,19.93
2019-03-09T04:39:57.774Z,19.90
2019-03-09T04:42:23.840Z,19.93
2019-03-09T04:44:49.985Z,18.50
2019-03-09T04:47:15.872Z,19.77
2019-03-09T04:49:41.701Z,20.27
2019-03-09T04:52:07.753Z,20.47
2019-03-09T04:54:33.613Z,21.77
2019-03-09T04:56:59.454Z,21.70
2019-03-09T04:59:25.529Z,21.13
2019-03-09T05:01:51.344Z,21.80
2019-03-09T05:04:27.371Z,19.57
2019-03-09T05:06:53.341Z,20.30
2019-03-09T05:09:44.294Z,20.57
2019-03-09T05:12:10.149Z,21.17
2019-03-09T05:14:36.118Z,20.30
2019-03-09T05:17:02.053Z,22.30
2019-03-09T05:19:27.908Z,21.53
2019-03-09T05:21:53.819Z,21.97
2019-03-09T05:24:19.652Z,21.40
2019-03-09T05:26:45.573Z,21.53
2019-03-09T05:29:11.497Z,21.93
2019-03-09T05:31:37.327Z,21.73
2019-03-09T05:34:03.273Z,21.53
2019-03-09T05:36:29.261Z,20.87
2019-03-09T05:38:55.139Z,22.53
2019-03-09T05:41:21.113Z,20.97
2019-03-09T05:43:46.971Z,20.07
2019-03-09T05:46:12.813Z,21.07
2019-03-09T05:48:38.697Z,20.93
2019-03-09T05:51:04.545Z,20.80
2019-03-09T05:53:30.416Z,20.03
2019-03-09T05:55:59.633Z,21.30
2019-03-09T05:58:25.733Z,21.10
2019-03-09T06:00:51.884Z,20.53
2019-03-09T06:03:17.811Z,20.93
2019-03-09T06:05:45.781Z,21.27
2019-03-09T06:08:11.663Z,21.77
2019-03-09T06:10:37.624Z,20.93
2019-03-09T06:13:03.858Z,20.80
2019-03-09T06:15:29.990Z,24.95
2019-03-09T06:17:55.786Z,22.10
2019-03-09T06:20:21.832Z,21.53
2019-03-09T06:22:47.816Z,22.40
2019-03-09T06:25:13.734Z,21.47
2019-03-09T06:27:39.667Z,21.97
2019-03-09T06:30:07.632Z,22.10
2019-03-09T06:32:37.305Z,21.00
2019-03-09T06:35:06.894Z,22.30
2019-03-09T06:37:32.735Z,22.33
2019-03-09T06:39:58.670Z,21.77
2019-03-09T06:42:28.290Z,21.17
2019-03-09T06:44:54.259Z,21.50
2019-03-09T06:47:20.093Z,20.07
2019-03-09T06:49:45.989Z,21.00
2019-03-09T06:52:12.034Z,21.43
2019-03-09T06:54:37.988Z,21.70
2019-03-09T06:57:13.249Z,20.53
2019-03-09T06:59:31.840Z,19.97
2019-03-09T07:01:57.826Z,19.57
2019-03-09T07:04:23.685Z,20.70
2019-03-09T07:06:49.509Z,19.50
2019-03-09T07:09:15.413Z,20.23
2019-03-09T07:11:41.258Z,19.23
2019-03-09T07:14:44.546Z,20.57
2019-03-09T07:17:10.393Z,19.90
2019-03-09T07:19:36.262Z,18.57
2019-03-09T07:22:02.255Z,18.17
2019-03-09T07:24:28.070Z,18.63
2019-03-09T07:26:53.906Z,18.43
2019-03-09T07:29:19.787Z,17.73
2019-03-09T07:31:45.649Z,18.07
2019-03-09T07:34:25.845Z,18.30
2019-03-09T07:36:51.686Z,17.30
2019-03-09T07:39:17.636Z,17.60
2019-03-09T07:41:43.546Z,16.63
2019-03-09T07:44:09.478Z,16.17
2019-03-09T07:46:35.398Z,16.67
2019-03-09T07:49:01.364Z,17.20
2019-03-09T07:51:27.197Z,17.60
2019-03-09T07:53:53.179Z,17.00
2019-03-09T07:56:19.274Z,17.57
2019-03-09T07:58:45.319Z,18.53
2019-03-09T08:01:11.182Z,17.37
2019-03-09T08:03:37.130Z,18.70
2019-03-09T08:06:03.068Z,19.20
2019-03-09T08:08:28.922Z,18.67
2019-03-09T08:10:54.789Z,20.70
2019-03-09T08:13:20.783Z,20.93
2019-03-09T08:15:46.757Z,21.33
2019-03-09T08:18:12.630Z,21.47
2019-03-09T08:20:38.498Z,20.60
2019-03-09T08:23:04.419Z,21.03
2019-03-09T08:25:30.495Z,20.37
2019-03-09T08:27:56.434Z,20.73
2019-03-09T08:30:24.204Z,20.37
2019-03-09T08:32:50.509Z,20.13
2019-03-09T08:35:17.540Z,19.70
2019-03-09T08:37:43.751Z,19.33
2019-03-09T08:40:12.231Z,20.03
2019-03-09T08:42:38.213Z,19.80
2019-03-09T08:45:06.988Z,17.90
2019-03-09T08:47:32.952Z,18.37
2019-03-09T08:49:58.884Z,17.73
2019-03-09T08:52:24.788Z,17.43
2019-03-09T08:54:50.669Z,17.80
2019-03-09T08:57:16.475Z,17.90
2019-03-09T08:59:42.349Z,17.63
2019-03-09T09:02:08.523Z,16.77
2019-03-09T09:04:34.788Z,16.37
2019-03-09T09:07:00.878Z,16.87
2019-03-09T09:09:26.955Z,16.53
2019-03-09T09:11:53.006Z,15.87
2019-03-09T09:14:18.869Z,15.30
2019-03-09T09:16:44.747Z,13.70
2019-03-09T09:19:10.600Z,11.97
2019-03-09T09:21:36.449Z,8.40
2019-03-09T09:24:02.716Z,5.47
2019-03-09T09:26:28.575Z,5.97
2019-03-09T09:28:54.396Z,4.50
2019-03-09T09:31:20.294Z,4.77
2019-03-09T09:33:46.119Z,5.33
2019-03-09T09:36:12.119Z,4.70
2019-03-09T09:38:38.037Z,4.43
2019-03-09T09:41:04.073Z,5.20
2019-03-09T09:43:29.915Z,5.70
2019-03-09T09:45:56.022Z,5.47
2019-03-09T09:48:21.838Z,6.20
2019-03-09T09:50:47.991Z,7.60
2019-03-09T09:53:13.982Z,6.00
2019-03-09T09:55:39.925Z,6.30
2019-03-09T09:58:06.033Z,7.10
2019-03-09T10:00:35.760Z,7.90
2019-03-09T10:03:01.591Z,6.97
2019-03-09T10:05:27.602Z,8.00
2019-03-09T10:07:53.473Z,7.20
2019-03-09T10:10:20.508Z,7.90
2019-03-09T10:12:46.695Z,7.47
2019-03-09T10:15:26.961Z,7.73
2019-03-09T10:17:53.095Z,7.53
2019-03-09T10:20:19.235Z,7.23
2019-03-09T10:22:45.052Z,8.17
2019-03-09T10:25:11.164Z,8.20
2019-03-09T10:27:37.102Z,6.03
2019-03-09T10:30:09.761Z,6.00
2019-03-09T10:32:35.773Z,6.23
2019-03-09T10:35:01.833Z,6.83
2019-03-09T10:37:27.770Z,6.83
2019-03-09T10:39:53.757Z,7.37
2019-03-09T10:42:19.573Z,6.37
2019-03-09T10:44:45.610Z,6.97
2019-03-09T10:47:11.597Z,7.73
2019-03-09T10:49:37.535Z,7.63
2019-03-09T10:52:03.369Z,7.73
2019-03-09T10:54:35.946Z,7.77
2019-03-09T10:56:57.128Z,9.20
2019-03-09T10:59:23.085Z,7.93
2019-03-09T11:01:49.099Z,10.00
2019-03-09T11:04:15.197Z,9.63
2019-03-09T11:06:41.182Z,9.63
2019-03-09T11:09:07.037Z,9.10
2019-03-09T11:11:32.876Z,9.93
2019-03-09T11:13:58.776Z,10.80
2019-03-09T11:16:24.629Z,9.43
2019-03-09T11:18:50.467Z,10.20
2019-03-09T11:21:16.690Z,11.23
2019-03-09T11:23:42.593Z,11.87
2019-03-09T11:26:08.559Z,11.77
2019-03-09T11:28:34.942Z,11.20
2019-03-09T11:31:00.785Z,10.87
2019-03-09T11:33:26.693Z,10.47
2019-03-09T11:35:52.649Z,10.50
2019-03-09T11:38:18.722Z,9.07
2019-03-09T11:40:44.641Z,8.97
2019-03-09T11:43:10.600Z,10.50
2019-03-09T11:45:36.774Z,9.77
2019-03-09T11:48:02.894Z,8.57
2019-03-09T11:50:28.720Z,8.13
2019-03-09T11:52:54.774Z,8.27
2019-03-09T11:55:20.802Z,8.07
2019-03-09T11:57:46.824Z,8.27
2019-03-09T12:00:22.383Z,8.30
2019-03-09T12:02:48.530Z,8.23
2019-03-09T12:05:14.369Z,7.87
2019-03-09T12:07:40.199Z,7.23
2019-03-09T12:10:10.467Z,8.27
2019-03-09T12:12:36.523Z,7.57
2019-03-09T12:15:04.960Z,7.20
2019-03-09T12:17:30.927Z,7.47
2019-03-09T12:19:56.879Z,7.33
2019-03-09T12:22:22.705Z,7.17
2019-03-09T12:24:50.752Z,8.00
2019-03-09T12:27:16.603Z,7.03
2019-03-09T12:29:42.477Z,7.27
2019-03-09T12:32:08.301Z,7.87
2019-03-09T12:34:34.238Z,7.53
2019-03-09T12:37:00.155Z,6.87
2019-03-09T12:39:26.074Z,8.03
2019-03-09T12:41:52.567Z,7.10
2019-03-09T12:44:18.720Z,7.47
2019-03-09T12:46:44.653Z,7.70
2019-03-09T12:49:10.626Z,7.58
2019-03-09T12:51:36.735Z,8.30
2019-03-09T12:54:02.673Z,7.95
2019-03-09T12:56:28.528Z,8.95
2019-03-09T12:58:54.449Z,8.90
2019-03-09T13:01:22.046Z,8.38
2019-03-09T13:03:48.114Z,8.28
2019-03-09T13:06:14.293Z,8.90
2019-03-09T13:08:40.204Z,9.08
2019-03-09T13:11:06.236Z,8.43
2019-03-09T13:13:32.931Z,9.40
2019-03-09T13:15:58.930Z,9.18
2019-03-09T13:18:24.791Z,9.28
2019-03-09T13:20:50.626Z,11.03
2019-03-09T13:23:16.596Z,10.65
2019-03-09T13:25:42.561Z,10.53
2019-03-09T13:28:08.632Z,11.78
2019-03-09T13:30:34.560Z,11.73
2019-03-09T13:33:00.771Z,11.63
2019-03-09T13:35:26.682Z,10.93
2019-03-09T13:37:52.645Z,9.90
2019-03-09T13:40:18.813Z,11.18
2019-03-09T13:42:44.873Z,12.20
2019-03-09T13:45:12.822Z,12.05
2019-03-09T13:47:38.933Z,13.35
2019-03-09T13:50:07.897Z,12.90
2019-03-09T13:52:33.723Z,12.07
2019-03-09T13:54:59.737Z,12.50
2019-03-09T13:57:25.557Z,12.40
2019-03-09T13:59:51.450Z,11.97
2019-03-09T14:02:17.272Z,12.20
2019-03-09T14:04:43.354Z,11.50
2019-03-09T14:07:09.309Z,12.80
2019-03-09T14:09:35.154Z,13.70
2019-03-09T14:12:00.999Z,12.33
2019-03-09T14:14:26.986Z,11.73
2019-03-09T14:16:52.961Z,11.30
2019-03-09T14:19:18.946Z,11.07
2019-03-09T14:21:44.798Z,10.53
2019-03-09T14:24:10.650Z,10.93
2019-03-09T14:26:36.469Z,9.70
2019-03-09T14:29:02.506Z,9.47
2019-03-09T14:31:28.581Z,10.40
2019-03-09T14:33:54.429Z,10.50
2019-03-09T14:36:20.339Z,10.13
2019-03-09T14:38:46.228Z,9.97
2019-03-09T14:41:12.068Z,9.73
2019-03-09T14:43:37.904Z,9.80
2019-03-09T14:46:03.973Z,10.23
2019-03-09T14:48:29.821Z,10.50
2019-03-09T14:50:55.653Z,10.57
2019-03-09T14:53:21.630Z,10.87
2019-03-09T14:55:47.496Z,10.43
2019-03-09T14:58:13.339Z,10.80
2019-03-09T15:00:39.376Z,11.03
2019-03-09T15:03:05.234Z,10.37
2019-03-09T15:05:31.049Z,10.80
2019-03-09T15:07:57.356Z,11.87
2019-03-09T15:10:23.294Z,11.23
2019-03-09T15:12:49.335Z,11.20
2019-03-09T15:15:16.513Z,11.60
2019-03-09T15:17:42.342Z,11.93
2019-03-09T15:20:10.307Z,11.60
2019-03-09T15:22:36.219Z,13.03
2019-03-09T15:25:03.483Z,12.07
2019-03-09T15:27:29.427Z,12.13
2019-03-09T15:29:55.326Z,12.30
2019-03-09T15:32:21.159Z,11.53
2019-03-09T15:34:47.233Z,11.87
2019-03-09T15:37:13.242Z,11.73
2019-03-09T15:39:39.192Z,11.60
2019-03-09T15:42:05.168Z,11.77
2019-03-09T15:44:31.055Z,12.03
2019-03-09T15:46:57.100Z,11.23
2019-03-09T15:49:23.061Z,11.23
2019-03-09T15:51:49.841Z,12.07
2019-03-09T15:54:16.015Z,11.30
2019-03-09T15:56:42.055Z,12.00
2019-03-09T15:59:07.901Z,12.63
2019-03-09T16:01:33.828Z,11.53
2019-03-09T16:03:59.679Z,10.97
2019-03-09T16:06:25.626Z,11.87
2019-03-09T16:08:51.578Z,11.43
2019-03-09T16:11:17.520Z,12.53
2019-03-09T16:13:43.421Z,12.43
2019-03-09T16:16:09.260Z,11.30
2019-03-09T16:18:35.109Z,11.73
2019-03-09T16:21:05.147Z,10.60
2019-03-09T16:23:30.997Z,10.83
2019-03-09T16:25:56.836Z,10.60
2019-03-09T16:28:22.801Z,11.20
2019-03-09T16:30:48.659Z,11.83
2019-03-09T16:33:14.720Z,11.80
2019-03-09T16:35:40.846Z,10.50
2019-03-09T16:38:06.810Z,11.00
2019-03-09T16:40:40.006Z,10.40
2019-03-09T16:43:00.595Z,9.93
2019-03-09T16:45:26.548Z,9.97
2019-03-09T16:47:52.596Z,10.30
2019-03-09T16:50:18.633Z,10.00
2019-03-09T16:52:44.827Z,10.00
2019-03-09T16:55:11.049Z,9.97
2019-03-09T16:57:37.020Z,10.20
2019-03-09T17:00:17.846Z,9.30
2019-03-09T17:02:43.988Z,9.83
2019-03-09T17:05:10.078Z,9.63
2019-03-09T17:07:36.045Z,9.93
2019-03-09T17:10:02.098Z,10.10
2019-03-09T17:12:28.088Z,10.33
2019-03-09T17:14:54.104Z,9.63
2019-03-09T17:17:19.989Z,9.80
2019-03-09T17:19:46.071Z,9.43
2019-03-09T17:22:11.951Z,9.97
2019-03-09T17:24:37.892Z,10.30
2019-03-09T17:27:04.035Z,10.17
2019-03-09T17:29:29.860Z,10.13
2019-03-09T17:31:55.693Z,11.07
2019-03-09T17:34:21.619Z,9.97
2019-03-09T17:36:47.457Z,10.60
2019-03-09T17:39:13.284Z,10.27
2019-03-09T17:41:39.231Z,9.83
2019-03-09T17:44:05.087Z,10.53
2019-03-09T17:46:31.016Z,11.03
2019-03-09T17:48:57.017Z,9.90
2019-03-09T17:51:22.962Z,10.13
2019-03-09T17:53:48.808Z,11.07
2019-03-09T17:56:14.697Z,10.57
2019-03-09T17:58:40.641Z,10.30
2019-03-09T18:01:06.678Z,10.23
2019-03-09T18:03:32.602Z,10.03
2019-03-09T18:05:58.533Z,10.43
2019-03-09T18:08:24.380Z,11.10
2019-03-09T18:10:53.779Z,11.10
2019-03-09T18:13:20.198Z,10.87
2019-03-09T18:15:46.155Z,11.57
2019-03-09T18:18:12.132Z,10.57
2019-03-09T18:20:37.980Z,10.40
2019-03-09T18:23:04.105Z,10.47
2019-03-09T18:25:30.034Z,10.90
2019-03-09T18:27:55.889Z,11.30
2019-03-09T18:30:21.877Z,10.80
2019-03-09T18:32:47.811Z,10.83
2019-03-09T18:35:13.868Z,11.03
2019-03-09T18:37:39.944Z,10.30
2019-03-09T18:40:14.271Z,10.57
2019-03-09T18:42:40.219Z,10.60
2019-03-09T18:45:12.109Z,11.00
2019-03-09T18:47:37.944Z,10.33
2019-03-09T18:50:05.291Z,10.30
2019-03-09T18:52:31.253Z,10.90
2019-03-09T18:54:57.089Z,10.50
2019-03-09T18:57:23.256Z,11.50
2019-03-09T18:59:49.088Z,11.50
2019-03-09T19:02:16.218Z,12.00
2019-03-09T19:04:42.123Z,12.87
2019-03-09T19:07:07.951Z,12.27
2019-03-09T19:09:33.794Z,12.50
2019-03-09T19:11:59.925Z,11.40
2019-03-09T19:14:25.863Z,13.27
2019-03-09T19:16:51.675Z,13.70
2019-03-09T19:19:17.554Z,13.40
2019-03-09T19:21:43.387Z,13.90
2019-03-09T19:24:09.622Z,14.00
2019-03-09T19:26:38.809Z,13.67
2019-03-09T19:29:05.315Z,14.47
2019-03-09T19:31:31.801Z,14.37
2019-03-09T19:33:57.807Z,14.80
2019-03-09T19:36:23.639Z,14.77
2019-03-09T19:38:49.519Z,20.37
2019-03-09T19:41:15.356Z,13.80
2019-03-09T19:43:41.252Z,15.30
2019-03-09T19:46:07.114Z,15.93
2019-03-09T19:48:33.937Z,17.00
2019-03-09T19:50:59.997Z,19.00
2019-03-09T19:53:25.949Z,17.83
2019-03-09T19:55:51.962Z,19.00
2019-03-09T19:58:18.079Z,17.33
2019-03-09T20:00:43.933Z,19.00
2019-03-09T20:03:09.766Z,18.47
2019-03-09T20:05:37.787Z,17.30
2019-03-09T20:08:03.844Z,13.77
2019-03-09T20:10:29.853Z,16.60
2019-03-09T20:12:55.848Z,27.70
2019-03-09T20:15:22.124Z,15.40
2019-03-09T20:17:48.707Z,14.97
2019-03-09T20:20:16.328Z,15.37
2019-03-09T20:22:42.390Z,14.43
2019-03-09T20:25:09.174Z,14.10
2019-03-09T20:27:35.450Z,14.07
2019-03-09T20:30:02.541Z,12.40
2019-03-09T20:32:30.950Z,13.20
2019-03-09T20:34:57.668Z,12.60
2019-03-09T20:37:24.742Z,13.43
2019-03-09T20:39:53.388Z,12.80
2019-03-09T20:42:22.113Z,13.87
2019-03-09T20:44:49.408Z,13.30
2019-03-09T20:47:16.885Z,13.97
2019-03-09T20:49:45.682Z,13.67
2019-03-09T20:52:15.355Z,13.37
2019-03-09T20:54:42.345Z,14.17
2019-03-09T20:57:09.455Z,14.00
2019-03-09T20:59:36.533Z,14.00
2019-03-09T21:02:03.833Z,14.43
2019-03-09T21:04:30.909Z,14.50
2019-03-09T21:06:59.558Z,14.03
2019-03-09T21:09:26.720Z,14.03
2019-03-09T21:11:53.580Z,12.60
2019-03-09T21:14:20.452Z,12.83
2019-03-09T21:16:47.457Z,12.93
2019-03-09T21:19:14.251Z,12.90
2019-03-09T21:21:40.780Z,12.07
2019-03-09T21:24:07.070Z,13.60
2019-03-09T21:26:33.062Z,13.13
2019-03-09T21:28:59.163Z,15.43
2019-03-09T21:31:25.167Z,14.30
2019-03-09T21:33:51.126Z,13.57
2019-03-09T21:36:16.979Z,14.30
2019-03-09T21:38:42.943Z,14.60
2019-03-09T21:41:08.917Z,13.87
2019-03-09T21:43:34.815Z,13.60
2019-03-09T21:46:01.200Z,12.80
2019-03-09T21:48:27.032Z,12.80
2019-03-09T21:50:53.014Z,12.93
2019-03-09T21:53:19.013Z,11.93
2019-03-09T21:55:44.864Z,11.70
2019-03-09T21:58:10.934Z,9.17
2019-03-09T22:00:37.864Z,11.30
2019-03-09T22:03:03.712Z,10.20
2019-03-09T22:05:29.593Z,10.60
2019-03-09T22:07:56.577Z,10.27
2019-03-09T22:10:22.598Z,9.90
2019-03-09T22:12:48.506Z,9.97
2019-03-09T22:15:15.382Z,10.47
2019-03-09T22:17:41.654Z,10.47
2019-03-09T22:20:11.291Z,11.03
2019-03-09T22:22:37.485Z,11.10
2019-03-09T22:25:06.731Z,10.43
2019-03-09T22:27:32.570Z,10.10
2019-03-09T22:29:58.457Z,9.50
2019-03-09T22:32:24.310Z,9.77
2019-03-09T22:34:50.294Z,8.33
2019-03-09T22:37:16.241Z,7.73
2019-03-09T22:39:42.216Z,7.73
2019-03-09T22:42:08.173Z,6.90
2019-03-09T22:44:33.991Z,6.07
2019-03-09T22:47:10.826Z,7.33
2019-03-09T22:49:27.955Z,5.40
2019-03-09T22:51:53.801Z,6.23
2019-03-09T22:54:19.730Z,6.07
2019-03-09T22:56:45.624Z,5.10
2019-03-09T22:59:11.501Z,6.30
2019-03-09T23:01:41.039Z,5.90
2019-03-09T23:04:06.997Z,6.17
2019-03-09T23:06:33.058Z,6.20
2019-03-09T23:08:59.133Z,6.20
2019-03-09T23:11:25.058Z,7.00
2019-03-09T23:13:51.055Z,6.83
2019-03-09T23:16:16.926Z,6.67
2019-03-09T23:18:42.784Z,6.43
2019-03-09T23:21:08.708Z,6.47
2019-03-09T23:23:36.518Z,8.20
2019-03-09T23:26:02.448Z,9.43
2019-03-09T23:28:43.255Z,10.47
2019-03-09T23:31:09.183Z,13.33
2019-03-09T23:33:35.050Z,14.60
2019-03-09T23:36:01.005Z,14.97
2019-03-09T23:38:26.871Z,15.40
2019-03-09T23:40:52.934Z,15.93
2019-03-09T23:43:18.776Z,15.90
2019-03-09T23:45:44.808Z,16.53
2019-03-09T23:48:10.936Z,16.07
2019-03-09T23:50:36.979Z,16.37
2019-03-09T23:53:03.026Z,16.10
2019-03-09T23:55:28.999Z,15.53
2019-03-09T23:57:55.053Z,16.60
